createdAt,value
2023-12-12T00:02:03.245Z,8.56
2023-12-12T00:04:30.150Z,8.54
2023-12-12T00:06:57.056Z,8.54
2023-12-12T00:09:24.407Z,8.54
2023-12-12T00:11:51.372Z,8.57
2023-12-12T00:14:18.256Z,8.53
2023-12-12T00:16:45.052Z,8.52
2023-12-12T00:19:11.945Z,8.52
2023-12-12T00:21:38.971Z,8.55
2023-12-12T00:24:06.107Z,8.55
2023-12-12T00:26:32.926Z,8.57
2023-12-12T00:28:59.783Z,8.58
2023-12-12T00:31:26.735Z,8.57
2023-12-12T00:33:53.620Z,8.57
2023-12-12T00:36:20.474Z,8.59
2023-12-12T00:38:47.629Z,8.55
2023-12-12T00:41:14.497Z,8.59
2023-12-12T00:43:42.398Z,8.62
2023-12-12T00:46:14.254Z,8.66
2023-12-12T00:48:41.271Z,8.70
2023-12-12T00:51:12.073Z,8.74
2023-12-12T00:53:39.154Z,8.73
2023-12-12T00:56:06.355Z,8.76
2023-12-12T00:58:33.262Z,8.74
2023-12-12T01:01:00.249Z,8.71
2023-12-12T01:03:28.235Z,8.66
2023-12-12T01:05:55.124Z,8.69
2023-12-12T01:08:21.899Z,8.74
2023-12-12T01:10:48.886Z,8.75
2023-12-12T01:13:15.747Z,8.76
2023-12-12T01:15:42.571Z,8.75
2023-12-12T01:18:09.515Z,8.76
2023-12-12T01:20:36.362Z,8.74
2023-12-12T01:23:03.641Z,8.68
2023-12-12T01:25:31.248Z,8.64
2023-12-12T01:27:58.354Z,8.65
2023-12-12T01:30:25.249Z,8.65
2023-12-12T01:32:52.072Z,8.66
2023-12-12T01:35:18.916Z,8.66
2023-12-12T01:37:45.775Z,8.65
2023-12-12T01:40:12.998Z,8.62
2023-12-12T01:42:39.842Z,8.61
2023-12-12T01:45:07.666Z,8.61
2023-12-12T01:47:35.449Z,8.55
2023-12-12T01:50:03.194Z,8.56
2023-12-12T01:52:30.493Z,8.54
2023-12-12T01:54:58.635Z,8.52
2023-12-12T01:57:25.926Z,8.46
2023-12-12T01:59:53.789Z,8.43
2023-12-12T02:02:21.039Z,8.39
2023-12-12T02:04:50.203Z,8.36
2023-12-12T02:07:18.136Z,8.35
2023-12-12T02:09:45.709Z,8.32
2023-12-12T02:12:12.606Z,8.33
2023-12-12T02:14:40.799Z,8.34
2023-12-12T02:17:07.676Z,8.38
2023-12-12T02:19:34.791Z,8.40
2023-12-12T02:22:01.749Z,8.38
2023-12-12T02:24:28.579Z,8.36
2023-12-12T02:26:55.786Z,8.32
2023-12-12T02:29:22.914Z,8.32
2023-12-12T02:31:49.694Z,8.33
2023-12-12T02:34:16.806Z,8.32
2023-12-12T02:36:44.928Z,8.30
2023-12-12T02:39:12.639Z,8.29
2023-12-12T02:41:39.460Z,8.26
2023-12-12T02:44:06.816Z,8.25
2023-12-12T02:46:33.664Z,8.23
2023-12-12T02:49:00.635Z,8.25
2023-12-12T02:51:27.594Z,8.23
2023-12-12T02:53:54.418Z,8.21
2023-12-12T02:56:21.260Z,8.23
2023-12-12T02:58:48.078Z,8.25
2023-12-12T03:01:15.916Z,8.24
2023-12-12T03:03:44.230Z,8.27
2023-12-12T03:06:11.257Z,8.28
2023-12-12T03:08:38.063Z,8.31
2023-12-12T03:11:05.024Z,8.30
2023-12-12T03:13:35.823Z,8.28
2023-12-12T03:16:02.914Z,8.25
2023-12-12T03:18:29.947Z,8.23
2023-12-12T03:20:56.804Z,8.24
2023-12-12T03:23:23.626Z,8.24
2023-12-12T03:25:50.502Z,8.24
2023-12-12T03:28:17.484Z,8.24
2023-12-12T03:30:44.694Z,8.20
2023-12-12T03:33:11.635Z,8.14
2023-12-12T03:35:38.497Z,8.09
2023-12-12T03:38:05.363Z,8.04
2023-12-12T03:40:32.191Z,8.01
2023-12-12T03:42:59.187Z,8.02
2023-12-12T03:45:26.044Z,8.05
2023-12-12T03:47:52.832Z,8.05
2023-12-12T03:50:19.745Z,8.05
2023-12-12T03:52:46.592Z,8.03
2023-12-12T03:55:13.598Z,8.07
2023-12-12T03:57:40.515Z,8.05
2023-12-12T04:00:08.812Z,8.01
2023-12-12T04:02:35.767Z,8.00
2023-12-12T04:05:04.128Z,7.98
2023-12-12T04:07:31.184Z,8.00
2023-12-12T04:09:58.150Z,7.98
2023-12-12T04:12:25.080Z,7.99
2023-12-12T04:14:51.949Z,7.96
2023-12-12T04:17:18.810Z,7.81
2023-12-12T04:19:45.688Z,7.66
2023-12-12T04:22:12.611Z,7.60
2023-12-12T04:24:39.634Z,7.61
2023-12-12T04:27:06.469Z,7.63
2023-12-12T04:29:33.311Z,7.62
2023-12-12T04:32:00.339Z,7.60
2023-12-12T04:34:27.188Z,7.63
2023-12-12T04:36:54.153Z,7.66
2023-12-12T04:39:21.247Z,7.66
2023-12-12T04:41:48.130Z,7.66
2023-12-12T04:44:15.003Z,7.70
2023-12-12T04:46:42.740Z,7.71
2023-12-12T04:49:10.273Z,7.72
2023-12-12T04:51:37.566Z,7.79
2023-12-12T04:54:04.927Z,7.82
2023-12-12T04:56:31.779Z,7.80
2023-12-12T04:58:58.624Z,7.83
2023-12-12T05:01:26.219Z,7.87
2023-12-12T05:03:53.213Z,7.83
2023-12-12T05:06:20.284Z,7.85
2023-12-12T05:08:47.627Z,7.77
2023-12-12T05:11:14.771Z,7.66
2023-12-12T05:13:42.510Z,7.64
2023-12-12T05:16:20.744Z,7.65
2023-12-12T05:18:55.872Z,7.69
2023-12-12T05:21:23.259Z,7.76
2023-12-12T05:23:50.903Z,7.83
2023-12-12T05:26:20.977Z,7.86
2023-12-12T05:28:48.534Z,7.94
2023-12-12T05:31:15.821Z,7.98
2023-12-12T05:33:42.868Z,8.03
2023-12-12T05:36:10.477Z,8.03
2023-12-12T05:38:39.976Z,8.08
2023-12-12T05:41:07.706Z,8.07
2023-12-12T05:43:34.937Z,8.04
2023-12-12T05:46:01.998Z,8.05
2023-12-12T05:48:29.727Z,8.07
2023-12-12T05:50:57.453Z,8.06
2023-12-12T05:53:24.249Z,8.07
2023-12-12T05:55:51.001Z,8.09
2023-12-12T05:58:17.942Z,8.11
2023-12-12T06:00:44.781Z,8.11
2023-12-12T06:03:11.627Z,8.09
2023-12-12T06:05:38.539Z,8.09
2023-12-12T06:08:05.544Z,8.12
2023-12-12T06:10:32.347Z,8.14
2023-12-12T06:12:59.680Z,8.15
2023-12-12T06:15:26.590Z,8.15
2023-12-12T06:17:53.479Z,8.14
2023-12-12T06:20:20.367Z,8.12
2023-12-12T06:22:47.274Z,8.13
2023-12-12T06:25:14.102Z,8.14
2023-12-12T06:27:41.004Z,8.15
2023-12-12T06:30:08.855Z,8.15
2023-12-12T06:32:35.865Z,8.13
2023-12-12T06:35:05.406Z,8.15
2023-12-12T06:37:32.669Z,8.15
2023-12-12T06:39:59.851Z,8.15
2023-12-12T06:42:27.034Z,8.14
2023-12-12T06:44:53.900Z,8.16
2023-12-12T06:47:21.252Z,8.14
2023-12-12T06:49:48.317Z,8.14
2023-12-12T06:52:15.400Z,8.15
2023-12-12T06:54:42.243Z,8.17
2023-12-12T06:57:09.161Z,8.09
2023-12-12T06:59:36.035Z,8.09
2023-12-12T07:02:03.166Z,8.08
2023-12-12T07:04:30.519Z,8.03
2023-12-12T07:06:57.623Z,8.03
2023-12-12T07:09:24.510Z,8.08
2023-12-12T07:11:51.356Z,8.08
2023-12-12T07:14:18.215Z,8.10
2023-12-12T07:16:45.002Z,8.09
2023-12-12T07:19:11.838Z,8.08
2023-12-12T07:21:45.718Z,8.09
2023-12-12T07:24:15.793Z,8.09
2023-12-12T07:26:48.270Z,8.07
2023-12-12T07:29:18.648Z,8.09
2023-12-12T07:31:47.458Z,8.06
2023-12-12T07:34:14.717Z,8.06
2023-12-12T07:36:42.550Z,8.12
2023-12-12T07:39:09.462Z,8.12
2023-12-12T07:41:36.468Z,8.15
2023-12-12T07:44:06.399Z,8.19
2023-12-12T07:46:40.540Z,8.21
2023-12-12T07:49:08.081Z,8.24
2023-12-12T07:51:35.374Z,8.28
2023-12-12T07:54:07.163Z,8.31
2023-12-12T07:56:34.104Z,8.33
2023-12-12T07:59:01.022Z,8.35
2023-12-12T08:01:28.592Z,8.39
2023-12-12T08:03:56.213Z,8.44
2023-12-12T08:06:23.338Z,8.45
2023-12-12T08:08:50.180Z,8.44
2023-12-12T08:11:17.083Z,8.44
2023-12-12T08:13:44.996Z,8.48
2023-12-12T08:16:12.221Z,8.51
2023-12-12T08:18:39.346Z,8.54
2023-12-12T08:21:07.397Z,8.62
2023-12-12T08:23:35.457Z,8.65
2023-12-12T08:26:02.446Z,8.61
2023-12-12T08:28:29.404Z,8.65
2023-12-12T08:30:56.571Z,8.67
2023-12-12T08:33:23.954Z,8.72
2023-12-12T08:35:51.081Z,8.80
2023-12-12T08:38:17.929Z,8.81
2023-12-12T08:40:44.819Z,8.78
2023-12-12T08:43:11.810Z,8.77
2023-12-12T08:45:38.731Z,8.80
2023-12-12T08:48:06.102Z,8.82
2023-12-12T08:50:32.997Z,8.84
2023-12-12T08:52:59.833Z,8.84
2023-12-12T08:55:26.992Z,8.89
2023-12-12T08:57:53.973Z,8.93
2023-12-12T09:00:20.896Z,8.93
2023-12-12T09:02:47.803Z,8.93
2023-12-12T09:05:14.693Z,8.95
2023-12-12T09:07:41.831Z,8.97
2023-12-12T09:10:09.593Z,8.99
2023-12-12T09:12:36.544Z,8.97
2023-12-12T09:15:04.247Z,9.01
2023-12-12T09:17:31.404Z,9.05
2023-12-12T09:19:58.651Z,9.08
2023-12-12T09:22:25.619Z,9.09
2023-12-12T09:24:54.632Z,9.15
2023-12-12T09:27:21.595Z,9.21
2023-12-12T09:29:48.426Z,9.27
2023-12-12T09:32:15.492Z,9.29
2023-12-12T09:34:42.412Z,9.29
2023-12-12T09:37:09.348Z,9.30
2023-12-12T09:39:36.137Z,9.32
2023-12-12T09:42:14.442Z,9.35
2023-12-12T09:44:45.520Z,9.36
2023-12-12T09:47:14.452Z,9.36
2023-12-12T09:49:42.308Z,9.34
2023-12-12T09:52:10.212Z,9.33
2023-12-12T09:54:38.885Z,9.34
2023-12-12T09:57:06.525Z,9.39
2023-12-12T09:59:33.565Z,9.40
2023-12-12T10:02:06.578Z,9.41
2023-12-12T10:04:45.449Z,9.42
2023-12-12T10:07:18.685Z,9.45
2023-12-12T10:09:45.929Z,9.47
2023-12-12T10:12:13.062Z,9.47
2023-12-12T10:14:42.476Z,9.45
2023-12-12T10:17:12.059Z,9.44
2023-12-12T10:19:39.808Z,9.43
2023-12-12T10:22:10.985Z,9.43
2023-12-12T10:24:38.656Z,9.43
2023-12-12T10:27:05.751Z,9.42
2023-12-12T10:29:33.377Z,9.40
2023-12-12T10:32:03.931Z,9.39
2023-12-12T10:34:31.466Z,9.38
2023-12-12T10:37:02.744Z,9.32
2023-12-12T10:39:32.714Z,9.28
2023-12-12T10:42:00.824Z,9.28
2023-12-12T10:44:39.461Z,9.27
2023-12-12T10:47:14.125Z,9.24
2023-12-12T10:49:46.485Z,9.25
2023-12-12T10:52:16.782Z,9.21
2023-12-12T10:54:45.518Z,9.23
2023-12-12T10:57:14.723Z,9.27
2023-12-12T10:59:58.931Z,9.32
2023-12-12T11:02:32.477Z,9.59
2023-12-12T11:05:01.832Z,9.73
2023-12-12T11:07:28.918Z,9.76
2023-12-12T11:09:55.934Z,9.79
2023-12-12T11:12:23.488Z,9.81
2023-12-12T11:14:50.744Z,9.81
2023-12-12T11:17:20.116Z,9.80
2023-12-12T11:19:47.263Z,9.84
2023-12-12T11:22:46.950Z,9.83
2023-12-12T11:25:22.592Z,9.82
2023-12-12T11:27:55.356Z,9.82
2023-12-12T11:30:35.202Z,9.79
2023-12-12T11:33:02.399Z,9.78
2023-12-12T11:35:34.591Z,9.72
2023-12-12T11:38:29.526Z,9.72
2023-12-12T11:41:18.654Z,9.73
2023-12-12T11:43:48.717Z,9.71
2023-12-12T11:46:21.341Z,9.69
2023-12-12T11:48:48.910Z,9.70
2023-12-12T11:51:34.563Z,9.70
2023-12-12T11:54:07.841Z,9.67
2023-12-12T11:56:35.261Z,9.68
2023-12-12T11:59:02.576Z,9.69
2023-12-12T12:01:29.572Z,9.74
2023-12-12T12:03:56.456Z,9.74
2023-12-12T12:06:23.411Z,9.72
2023-12-12T12:08:51.545Z,9.71
2023-12-12T12:11:18.465Z,9.71
2023-12-12T12:13:45.817Z,9.71
2023-12-12T12:16:15.051Z,9.65
2023-12-12T12:18:42.035Z,9.62
2023-12-12T12:21:09.351Z,9.61
2023-12-12T12:23:40.389Z,9.64
2023-12-12T12:26:07.992Z,9.63
2023-12-12T12:28:37.004Z,9.64
2023-12-12T12:31:06.674Z,9.65
2023-12-12T12:33:36.518Z,9.64
2023-12-12T12:36:03.640Z,9.65
2023-12-12T12:38:32.625Z,9.66
2023-12-12T12:41:00.414Z,9.66
2023-12-12T12:43:27.763Z,9.62
2023-12-12T12:45:55.322Z,9.62
2023-12-12T12:48:22.606Z,9.65
2023-12-12T12:50:51.065Z,9.63
2023-12-12T12:53:18.663Z,9.61
2023-12-12T12:55:46.290Z,9.58
2023-12-12T12:58:14.467Z,9.54
2023-12-12T13:00:45.779Z,9.53
2023-12-12T13:03:14.452Z,9.54
2023-12-12T13:05:41.631Z,9.54
2023-12-12T13:08:08.759Z,9.56
2023-12-12T13:10:43.949Z,9.57
2023-12-12T13:13:18.279Z,9.57
2023-12-12T13:15:45.275Z,9.56
2023-12-12T13:18:12.160Z,9.58
2023-12-12T13:20:38.986Z,9.56
2023-12-12T13:23:05.771Z,9.56
2023-12-12T13:25:32.932Z,9.58
2023-12-12T13:28:00.195Z,9.57
2023-12-12T13:30:27.468Z,9.58
2023-12-12T13:32:54.551Z,9.61
2023-12-12T13:35:33.939Z,9.69
2023-12-12T13:38:04.839Z,9.78
2023-12-12T13:40:32.563Z,9.85
2023-12-12T13:42:59.823Z,9.87
2023-12-12T13:45:26.805Z,9.92
2023-12-12T13:47:53.893Z,9.95
2023-12-12T13:50:22.472Z,9.95
2023-12-12T13:52:49.421Z,9.97
2023-12-12T13:55:16.306Z,9.98
2023-12-12T13:57:43.204Z,10.00
2023-12-12T14:00:13.531Z,10.02
2023-12-12T14:02:41.834Z,10.02
2023-12-12T14:05:09.654Z,10.01
2023-12-12T14:07:37.040Z,10.00
2023-12-12T14:10:07.814Z,9.98
2023-12-12T14:12:35.897Z,9.97
2023-12-12T14:15:04.846Z,9.98
2023-12-12T14:17:32.032Z,9.96
2023-12-12T14:19:59.118Z,9.95
2023-12-12T14:22:26.034Z,9.96
2023-12-12T14:24:52.986Z,9.98
2023-12-12T14:27:21.053Z,10.00
2023-12-12T14:29:47.928Z,10.01
2023-12-12T14:32:15.606Z,10.00
2023-12-12T14:34:43.347Z,10.00
2023-12-12T14:37:10.526Z,10.01
2023-12-12T14:39:37.350Z,9.99
2023-12-12T14:42:04.584Z,9.97
2023-12-12T14:44:31.429Z,9.97
2023-12-12T14:46:58.280Z,9.94
2023-12-12T14:49:25.842Z,9.93
2023-12-12T14:51:55.645Z,9.90
2023-12-12T14:54:22.800Z,9.89
2023-12-12T14:56:52.771Z,9.88
2023-12-12T14:59:19.836Z,9.87
2023-12-12T15:01:46.687Z,9.85
2023-12-12T15:04:13.729Z,9.83
2023-12-12T15:06:41.467Z,9.83
2023-12-12T15:09:12.414Z,9.83
2023-12-12T15:11:42.965Z,9.86
2023-12-12T15:14:09.959Z,9.87
2023-12-12T15:16:37.293Z,9.92
2023-12-12T15:19:04.306Z,9.91
2023-12-12T15:21:31.240Z,9.90
2023-12-12T15:23:58.486Z,9.85
2023-12-12T15:26:25.586Z,9.83
2023-12-12T15:28:52.492Z,9.82
2023-12-12T15:31:19.526Z,9.83
2023-12-12T15:33:46.597Z,9.82
2023-12-12T15:36:13.616Z,9.82
2023-12-12T15:38:40.441Z,9.82
2023-12-12T15:41:07.732Z,9.84
2023-12-12T15:43:35.520Z,9.82
2023-12-12T15:46:02.783Z,9.82
2023-12-12T15:48:30.212Z,9.80
2023-12-12T15:50:57.377Z,9.77
2023-12-12T15:53:24.480Z,9.77
2023-12-12T15:55:54.074Z,9.77
2023-12-12T15:58:21.324Z,9.77
2023-12-12T16:00:48.512Z,9.78
2023-12-12T16:03:17.368Z,9.77
2023-12-12T16:05:44.410Z,9.75
2023-12-12T16:08:13.169Z,9.75
2023-12-12T16:10:40.061Z,9.73
2023-12-12T16:13:07.077Z,9.73
2023-12-12T16:15:34.189Z,9.72
2023-12-12T16:18:04.300Z,9.72
2023-12-12T16:20:31.394Z,9.72
2023-12-12T16:22:58.290Z,9.72
2023-12-12T16:25:25.246Z,9.72
2023-12-12T16:27:53.219Z,9.70
2023-12-12T16:30:21.349Z,9.71
2023-12-12T16:32:54.409Z,9.71
2023-12-12T16:35:25.198Z,9.71
2023-12-12T16:37:52.750Z,9.70
2023-12-12T16:40:19.967Z,9.69
2023-12-12T16:42:46.945Z,9.78
2023-12-12T16:45:15.494Z,9.74
2023-12-12T16:47:42.978Z,9.71
2023-12-12T16:50:11.973Z,9.68
2023-12-12T16:52:39.180Z,9.65
2023-12-12T16:55:07.496Z,9.65
2023-12-12T16:57:37.047Z,9.59
2023-12-12T17:00:08.710Z,9.55
2023-12-12T17:02:37.384Z,9.50
2023-12-12T17:05:06.559Z,9.52
2023-12-12T17:07:33.905Z,9.57
2023-12-12T17:10:01.381Z,9.58
2023-12-12T17:12:28.273Z,9.56
2023-12-12T17:14:55.173Z,9.56
2023-12-12T17:17:22.090Z,9.57
2023-12-12T17:19:49.036Z,9.57
2023-12-12T17:22:16.062Z,9.57
2023-12-12T17:24:43.069Z,9.56
2023-12-12T17:27:09.867Z,9.53
2023-12-12T17:29:36.814Z,9.53
2023-12-12T17:32:05.781Z,9.53
2023-12-12T17:34:32.975Z,9.57
2023-12-12T17:36:59.793Z,9.61
2023-12-12T17:39:26.878Z,9.62
2023-12-12T17:41:54.126Z,9.64
2023-12-12T17:44:20.944Z,9.63
2023-12-12T17:46:47.800Z,9.64
2023-12-12T17:49:14.687Z,9.64
2023-12-12T17:51:42.632Z,9.64
2023-12-12T17:54:09.513Z,9.66
2023-12-12T17:56:36.535Z,9.66
2023-12-12T17:59:05.222Z,9.67
2023-12-12T18:01:38.372Z,9.68
2023-12-12T18:04:05.973Z,9.67
2023-12-12T18:06:33.561Z,9.65
2023-12-12T18:09:01.209Z,9.64
2023-12-12T18:11:31.522Z,9.63
2023-12-12T18:14:02.196Z,9.61
2023-12-12T18:16:29.447Z,9.56
2023-12-12T18:18:56.658Z,9.51
2023-12-12T18:21:23.574Z,9.49
2023-12-12T18:23:50.455Z,9.49
2023-12-12T18:26:17.393Z,9.46
2023-12-12T18:28:47.419Z,9.47
2023-12-12T18:31:15.225Z,9.48
2023-12-12T18:33:42.812Z,9.49
2023-12-12T18:36:11.313Z,9.54
2023-12-12T18:38:38.545Z,9.57
2023-12-12T18:41:08.780Z,9.60
2023-12-12T18:43:35.683Z,9.64
2023-12-12T18:46:02.863Z,9.67
2023-12-12T18:48:29.966Z,9.64
2023-12-12T18:50:56.877Z,9.62
2023-12-12T18:53:23.824Z,9.59
2023-12-12T18:55:51.517Z,9.62
2023-12-12T18:58:19.033Z,9.64
2023-12-12T19:00:45.937Z,9.65
2023-12-12T19:03:13.190Z,9.65
2023-12-12T19:05:40.660Z,9.68
2023-12-12T19:08:07.576Z,9.71
2023-12-12T19:10:35.788Z,9.74
2023-12-12T19:13:03.761Z,9.74
2023-12-12T19:15:30.593Z,9.74
2023-12-12T19:17:57.526Z,9.72
2023-12-12T19:20:24.527Z,9.70
2023-12-12T19:22:53.947Z,9.71
2023-12-12T19:25:20.870Z,9.67
2023-12-12T19:27:48.181Z,9.67
2023-12-12T19:30:15.323Z,9.65
2023-12-12T19:32:43.494Z,9.64
2023-12-12T19:35:11.213Z,9.66
2023-12-12T19:37:39.958Z,9.66
2023-12-12T19:40:08.732Z,9.66
2023-12-12T19:42:35.958Z,9.65
2023-12-12T19:45:04.117Z,9.65
2023-12-12T19:47:31.220Z,9.66
2023-12-12T19:50:01.270Z,9.66
2023-12-12T19:52:30.407Z,9.69
2023-12-12T19:54:57.253Z,9.69
2023-12-12T19:57:24.893Z,9.67
2023-12-12T19:59:51.813Z,9.63
2023-12-12T20:02:18.700Z,9.60
2023-12-12T20:04:45.590Z,9.58
2023-12-12T20:07:14.384Z,9.57
2023-12-12T20:09:42.521Z,9.58
2023-12-12T20:12:10.613Z,9.60
2023-12-12T20:14:38.306Z,9.60
2023-12-12T20:17:08.205Z,9.59
2023-12-12T20:19:35.670Z,9.58
2023-12-12T20:22:06.829Z,9.58
2023-12-12T20:24:33.854Z,9.60
2023-12-12T20:27:00.707Z,9.62
2023-12-12T20:29:27.575Z,9.62
2023-12-12T20:31:55.193Z,9.63
2023-12-12T20:34:22.138Z,9.66
2023-12-12T20:36:49.738Z,9.68
2023-12-12T20:39:16.906Z,9.71
2023-12-12T20:41:47.736Z,9.75
2023-12-12T20:44:14.640Z,9.76
2023-12-12T20:46:42.362Z,9.77
2023-12-12T20:49:09.759Z,9.75
2023-12-12T20:51:38.390Z,9.72
2023-12-12T20:54:05.564Z,9.72
2023-12-12T20:56:34.659Z,9.72
2023-12-12T20:59:01.585Z,9.73
2023-12-12T21:01:28.406Z,9.74
2023-12-12T21:03:55.317Z,9.75
2023-12-12T21:06:22.176Z,9.78
2023-12-12T21:08:49.180Z,9.79
2023-12-12T21:11:16.171Z,9.84
2023-12-12T21:13:43.200Z,9.87
2023-12-12T21:16:20.084Z,9.86
2023-12-12T21:18:47.288Z,9.80
2023-12-12T21:21:14.351Z,9.75
2023-12-12T21:23:41.477Z,9.71
2023-12-12T21:26:08.924Z,9.66
2023-12-12T21:28:39.407Z,9.65
2023-12-12T21:31:07.542Z,9.56
2023-12-12T21:33:34.788Z,9.50
2023-12-12T21:36:01.781Z,9.46
2023-12-12T21:38:29.722Z,9.40
2023-12-12T21:40:56.804Z,9.34
2023-12-12T21:43:23.861Z,9.34
2023-12-12T21:45:50.766Z,9.33
2023-12-12T21:48:17.870Z,9.30
2023-12-12T21:50:44.823Z,9.30
2023-12-12T21:53:11.843Z,9.30
2023-12-12T21:55:39.570Z,9.21
2023-12-12T21:58:06.429Z,9.21
2023-12-12T22:00:33.268Z,9.21
2023-12-12T22:03:00.096Z,9.23
2023-12-12T22:05:27.120Z,9.22
2023-12-12T22:07:54.253Z,9.25
2023-12-12T22:10:21.302Z,9.26
2023-12-12T22:12:48.155Z,9.26
2023-12-12T22:15:14.997Z,9.26
2023-12-12T22:17:41.992Z,9.26
2023-12-12T22:20:09.533Z,9.26
2023-12-12T22:22:38.161Z,9.27
2023-12-12T22:25:06.056Z,9.28
2023-12-12T22:27:33.155Z,9.27
2023-12-12T22:30:01.731Z,9.22
2023-12-12T22:32:28.883Z,9.21
2023-12-12T22:34:55.865Z,9.16
2023-12-12T22:37:23.042Z,9.11
2023-12-12T22:39:49.920Z,9.08
2023-12-12T22:42:16.756Z,9.07
2023-12-12T22:44:44.191Z,9.04
2023-12-12T22:47:12.079Z,9.02
2023-12-12T22:49:39.040Z,9.00
2023-12-12T22:52:06.306Z,9.02
2023-12-12T22:54:33.216Z,9.05
2023-12-12T22:57:00.806Z,9.03
2023-12-12T22:59:27.705Z,9.00
2023-12-12T23:01:54.547Z,8.98
2023-12-12T23:04:21.438Z,8.96
2023-12-12T23:06:49.606Z,8.97
2023-12-12T23:09:16.737Z,8.98
2023-12-12T23:11:43.540Z,9.00
2023-12-12T23:14:10.371Z,9.02
2023-12-12T23:16:37.452Z,9.02
2023-12-12T23:19:04.382Z,8.95
2023-12-12T23:21:32.272Z,8.90
2023-12-12T23:23:59.221Z,8.90
2023-12-12T23:26:26.782Z,8.86
2023-12-12T23:28:54.843Z,8.77
2023-12-12T23:31:21.748Z,8.71
2023-12-12T23:33:48.777Z,8.70
2023-12-12T23:36:15.627Z,8.70
2023-12-12T23:38:42.379Z,8.71
2023-12-12T23:41:09.165Z,8.71
2023-12-12T23:43:36.773Z,8.71
2023-12-12T23:46:04.805Z,8.71
2023-12-12T23:48:31.701Z,8.70
2023-12-12T23:50:58.782Z,8.72
2023-12-12T23:53:33.536Z,8.70
2023-12-12T23:56:01.696Z,8.62
2023-12-12T23:58:28.504Z,8.56
